createdAt,value
2018-04-14T00:00:31.249Z,13.92
2018-04-14T00:02:57.910Z,13.89
2018-04-14T00:05:24.547Z,13.87
2018-04-14T00:07:51.302Z,13.86
2018-04-14T00:10:17.953Z,13.78
2018-04-14T00:12:44.788Z,13.76
2018-04-14T00:15:11.471Z,13.77
2018-04-14T00:17:38.264Z,13.74
2018-04-14T00:20:04.913Z,13.72
2018-04-14T00:22:31.571Z,13.69
2018-04-14T00:24:59.085Z,13.66
2018-04-14T00:27:25.724Z,13.66
2018-04-14T00:29:52.379Z,13.66
2018-04-14T00:32:19.019Z,13.66
2018-04-14T00:34:45.903Z,13.66
2018-04-14T00:37:12.562Z,13.70
2018-04-14T00:39:39.255Z,13.69
2018-04-14T00:42:05.923Z,13.68
2018-04-14T00:44:32.573Z,13.66
2018-04-14T00:46:59.262Z,13.69
2018-04-14T00:49:25.903Z,13.68
2018-04-14T00:51:52.675Z,13.60
2018-04-14T00:54:19.500Z,13.68
2018-04-14T00:56:47.045Z,13.64
2018-04-14T00:59:13.760Z,13.55
2018-04-14T01:01:40.395Z,13.64
2018-04-14T01:04:07.040Z,13.65
2018-04-14T01:06:33.660Z,13.81
2018-04-14T01:09:00.336Z,13.80
2018-04-14T01:11:26.984Z,13.74
2018-04-14T01:13:53.678Z,13.75
2018-04-14T01:16:20.461Z,13.73
2018-04-14T01:18:47.086Z,13.67
2018-04-14T01:21:13.885Z,13.56
2018-04-14T01:23:40.592Z,13.50
2018-04-14T01:26:07.997Z,13.46
2018-04-14T01:28:34.638Z,13.44
2018-04-14T01:31:01.311Z,13.47
2018-04-14T01:33:28.067Z,13.41
2018-04-14T01:35:54.764Z,13.35
2018-04-14T01:38:21.424Z,13.33
2018-04-14T01:40:48.105Z,13.46
2018-04-14T01:43:14.778Z,13.61
2018-04-14T01:45:41.403Z,13.50
2018-04-14T01:48:08.033Z,13.50
2018-04-14T01:50:34.820Z,13.57
2018-04-14T01:53:01.469Z,13.57
2018-04-14T01:55:28.416Z,13.70
2018-04-14T01:57:55.243Z,13.58
2018-04-14T02:00:21.885Z,13.63
2018-04-14T02:02:48.539Z,13.47
2018-04-14T02:05:15.255Z,13.48
2018-04-14T02:07:41.922Z,13.44
2018-04-14T02:10:08.560Z,13.49
2018-04-14T02:12:36.039Z,13.33
2018-04-14T02:15:02.696Z,13.37
2018-04-14T02:17:29.296Z,13.39
2018-04-14T02:19:56.689Z,13.31
2018-04-14T02:22:23.390Z,13.37
2018-04-14T02:24:50.007Z,13.32
2018-04-14T02:27:17.384Z,13.34
2018-04-14T02:29:44.796Z,13.43
2018-04-14T02:32:12.178Z,13.47
2018-04-14T02:34:38.828Z,13.41
2018-04-14T02:37:06.196Z,13.44
2018-04-14T02:39:33.598Z,13.45
2018-04-14T02:42:00.260Z,13.49
2018-04-14T02:44:26.926Z,13.36
2018-04-14T02:46:54.553Z,13.51
2018-04-14T02:49:21.180Z,13.50
2018-04-14T02:51:47.824Z,13.36
2018-04-14T02:54:14.488Z,13.21
2018-04-14T02:56:41.124Z,13.21
2018-04-14T02:59:07.840Z,13.07
2018-04-14T03:01:34.489Z,13.04
2018-04-14T03:04:01.185Z,12.92
2018-04-14T03:06:27.970Z,13.00
2018-04-14T03:08:54.619Z,12.96
2018-04-14T03:11:21.243Z,12.92
2018-04-14T03:13:48.119Z,12.91
2018-04-14T03:16:15.519Z,13.00
2018-04-14T03:18:42.133Z,13.10
2018-04-14T03:21:08.770Z,13.14
2018-04-14T03:23:35.430Z,13.11
2018-04-14T03:26:02.108Z,13.10
2018-04-14T03:28:28.807Z,13.23
2018-04-14T03:30:55.417Z,13.23
2018-04-14T03:33:22.789Z,13.20
2018-04-14T03:35:49.615Z,13.27
2018-04-14T03:38:16.994Z,13.31
2018-04-14T03:40:43.678Z,13.33
2018-04-14T03:43:10.314Z,13.42
2018-04-14T03:45:36.991Z,13.34
2018-04-14T03:48:04.516Z,13.45
2018-04-14T03:50:31.135Z,13.36
2018-04-14T03:52:57.764Z,13.34
2018-04-14T03:55:24.542Z,13.23
2018-04-14T03:57:51.160Z,13.19
2018-04-14T04:00:18.006Z,13.11
2018-04-14T04:02:44.636Z,13.09
2018-04-14T04:05:11.332Z,13.19
2018-04-14T04:07:38.777Z,13.26
2018-04-14T04:10:06.138Z,13.24
2018-04-14T04:12:33.525Z,13.14
2018-04-14T04:15:00.176Z,13.12
2018-04-14T04:17:26.822Z,13.14
2018-04-14T04:20:11.844Z,13.09
2018-04-14T04:22:57.733Z,13.06
2018-04-14T04:25:40.411Z,13.14
2018-04-14T04:28:07.063Z,13.12
2018-04-14T04:30:33.825Z,13.33
2018-04-14T04:33:01.291Z,13.07
2018-04-14T04:35:27.921Z,13.11
2018-04-14T04:37:55.323Z,12.97
2018-04-14T04:40:21.943Z,12.89
2018-04-14T04:42:48.687Z,12.87
2018-04-14T04:45:15.327Z,12.85
2018-04-14T04:47:42.061Z,13.04
2018-04-14T04:50:08.690Z,13.15
2018-04-14T04:52:35.358Z,13.04
2018-04-14T04:55:02.143Z,13.00
2018-04-14T04:57:29.543Z,13.01
2018-04-14T04:59:56.174Z,13.06
2018-04-14T05:02:22.975Z,13.07
2018-04-14T05:04:49.697Z,13.15
2018-04-14T05:07:16.480Z,13.22
2018-04-14T05:09:43.311Z,13.35
2018-04-14T05:12:10.663Z,13.33
2018-04-14T05:14:38.105Z,13.35
2018-04-14T05:17:04.724Z,13.23
2018-04-14T05:19:31.380Z,13.20
2018-04-14T05:21:58.007Z,13.10
2018-04-14T05:24:24.811Z,13.20
2018-04-14T05:26:51.460Z,13.23
2018-04-14T05:29:18.258Z,13.11
2018-04-14T05:31:45.826Z,13.04
2018-04-14T05:34:13.381Z,13.00
2018-04-14T05:36:40.806Z,13.01
2018-04-14T05:39:09.109Z,13.10
2018-04-14T05:41:36.573Z,13.15
2018-04-14T05:44:04.051Z,13.22
2018-04-14T05:46:30.819Z,13.40
2018-04-14T05:48:57.473Z,13.25
2018-04-14T05:51:24.144Z,13.38
2018-04-14T05:53:51.543Z,13.34
2018-04-14T05:56:18.166Z,13.34
2018-04-14T05:58:44.993Z,13.40
2018-04-14T06:01:12.459Z,13.25
2018-04-14T06:03:39.125Z,13.17
2018-04-14T06:06:05.912Z,13.15
2018-04-14T06:08:33.297Z,13.24
2018-04-14T06:10:59.951Z,13.41
2018-04-14T06:13:26.629Z,13.61
2018-04-14T06:15:53.269Z,13.80
2018-04-14T06:18:21.848Z,13.94
2018-04-14T06:20:54.733Z,14.05
2018-04-14T06:23:22.161Z,14.11
2018-04-14T06:25:48.842Z,14.10
2018-04-14T06:28:16.278Z,14.16
2018-04-14T06:30:42.997Z,14.21
2018-04-14T06:33:09.646Z,14.24
2018-04-14T06:35:36.389Z,14.21
2018-04-14T06:38:03.063Z,14.27
2018-04-14T06:40:30.495Z,14.11
2018-04-14T06:42:57.126Z,13.79
2018-04-14T06:45:23.941Z,13.84
2018-04-14T06:47:50.592Z,13.98
2018-04-14T06:50:17.493Z,13.95
2018-04-14T06:52:44.880Z,13.97
2018-04-14T06:55:11.500Z,14.08
2018-04-14T06:57:38.132Z,14.16
2018-04-14T07:00:05.543Z,14.00
2018-04-14T07:02:32.244Z,13.62
2018-04-14T07:04:58.884Z,13.52
2018-04-14T07:07:25.528Z,13.47
2018-04-14T07:09:52.207Z,13.35
2018-04-14T07:12:19.016Z,13.12
2018-04-14T07:14:45.656Z,13.28
2018-04-14T07:17:12.528Z,13.51
2018-04-14T07:19:39.173Z,13.50
2018-04-14T07:22:05.883Z,13.79
2018-04-14T07:24:32.527Z,13.77
2018-04-14T07:26:59.254Z,13.55
2018-04-14T07:29:26.010Z,13.51
2018-04-14T07:31:52.664Z,13.71
2018-04-14T07:34:19.292Z,13.82
2018-04-14T07:36:46.096Z,13.95
2018-04-14T07:39:13.884Z,14.21
2018-04-14T07:41:40.509Z,14.39
2018-04-14T07:44:07.301Z,14.63
2018-04-14T07:46:33.989Z,14.25
2018-04-14T07:49:00.664Z,14.13
2018-04-14T07:51:27.421Z,14.04
2018-04-14T07:53:54.088Z,13.75
2018-04-14T07:56:21.473Z,13.63
2018-04-14T07:58:48.199Z,13.86
2018-04-14T08:01:14.957Z,13.78
2018-04-14T08:03:41.593Z,13.98
2018-04-14T08:06:08.274Z,14.25
2018-04-14T08:08:34.995Z,14.06
2018-04-14T08:11:01.685Z,13.98
2018-04-14T08:13:29.206Z,13.94
2018-04-14T08:15:55.900Z,14.06
2018-04-14T08:18:22.569Z,14.07
2018-04-14T08:20:49.189Z,14.21
2018-04-14T08:23:15.948Z,14.35
2018-04-14T08:25:42.605Z,14.56
2018-04-14T08:28:10.719Z,14.40
2018-04-14T08:30:38.172Z,14.27
2018-04-14T08:33:05.575Z,14.88
2018-04-14T08:35:32.262Z,15.05
2018-04-14T08:37:59.670Z,15.38
2018-04-14T08:40:26.357Z,15.70
2018-04-14T08:42:53.934Z,15.07
2018-04-14T08:45:20.870Z,14.71
2018-04-14T08:47:47.561Z,14.51
2018-04-14T08:50:14.357Z,14.38
2018-04-14T08:52:41.009Z,14.60
2018-04-14T08:55:07.671Z,14.52
2018-04-14T08:57:34.437Z,14.35
2018-04-14T09:00:01.095Z,14.53
2018-04-14T09:02:28.458Z,14.78
2018-04-14T09:04:55.855Z,14.83
2018-04-14T09:07:22.572Z,15.16
2018-04-14T09:09:49.237Z,15.22
2018-04-14T09:12:15.872Z,14.94
2018-04-14T09:14:42.622Z,14.85
2018-04-14T09:17:09.275Z,14.70
2018-04-14T09:19:36.026Z,14.94
2018-04-14T09:22:02.790Z,14.99
2018-04-14T09:24:30.181Z,15.07
2018-04-14T09:26:56.828Z,15.22
2018-04-14T09:29:23.497Z,15.25
2018-04-14T09:31:50.907Z,14.98
2018-04-14T09:34:17.599Z,14.82
2018-04-14T09:36:44.249Z,14.64
2018-04-14T09:39:11.700Z,14.90
2018-04-14T09:41:38.347Z,15.40
2018-04-14T09:44:05.848Z,15.70
2018-04-14T09:46:32.498Z,16.16
2018-04-14T09:48:59.166Z,16.54
2018-04-14T09:51:25.864Z,16.90
2018-04-14T09:53:52.524Z,17.12
2018-04-14T09:56:19.164Z,17.24
2018-04-14T09:58:45.841Z,17.25
2018-04-14T10:01:19.427Z,16.57
2018-04-14T10:03:50.126Z,16.65
2018-04-14T10:06:16.768Z,16.83
2018-04-14T10:08:43.529Z,16.80
2018-04-14T10:11:10.211Z,17.01
2018-04-14T10:13:37.602Z,16.40
2018-04-14T10:16:04.328Z,16.42
2018-04-14T10:18:31.970Z,16.67
2018-04-14T10:21:09.822Z,16.78
2018-04-14T10:23:37.251Z,16.93
2018-04-14T10:26:04.712Z,17.07
2018-04-14T10:28:32.136Z,17.12
2018-04-14T10:30:58.796Z,17.18
2018-04-14T10:33:25.474Z,17.12
2018-04-14T10:35:52.218Z,17.02
2018-04-14T10:38:18.845Z,16.93
2018-04-14T10:40:45.668Z,16.97
2018-04-14T10:43:13.455Z,16.98
2018-04-14T10:45:40.100Z,17.05
2018-04-14T10:48:06.743Z,17.18
2018-04-14T10:50:33.399Z,17.34
2018-04-14T10:53:00.055Z,17.49
2018-04-14T10:55:27.611Z,17.60
2018-04-14T10:57:55.053Z,17.70
2018-04-14T11:00:21.683Z,17.63
2018-04-14T11:02:48.372Z,17.26
2018-04-14T11:05:15.020Z,17.10
2018-04-14T11:07:41.761Z,17.01
2018-04-14T11:10:08.432Z,17.02
2018-04-14T11:12:35.070Z,17.03
2018-04-14T11:15:01.725Z,17.19
2018-04-14T11:17:28.441Z,17.60
2018-04-14T11:19:55.154Z,17.94
2018-04-14T11:22:21.836Z,18.03
2018-04-14T11:24:48.480Z,18.21
2018-04-14T11:27:15.235Z,18.37
2018-04-14T11:29:42.839Z,18.49
2018-04-14T11:32:10.213Z,18.58
2018-04-14T11:34:36.910Z,18.73
2018-04-14T11:37:03.618Z,18.86
2018-04-14T11:39:30.238Z,18.63
2018-04-14T11:41:56.875Z,18.79
2018-04-14T11:44:23.828Z,18.89
2018-04-14T11:46:50.478Z,19.02
2018-04-14T11:49:17.169Z,19.11
2018-04-14T11:51:43.850Z,19.12
2018-04-14T11:54:11.311Z,18.72
2018-04-14T11:56:38.141Z,18.47
2018-04-14T11:59:04.861Z,18.54
2018-04-14T12:01:31.795Z,18.65
2018-04-14T12:03:58.504Z,18.55
2018-04-14T12:06:26.076Z,18.40
2018-04-14T12:08:52.756Z,18.42
2018-04-14T12:11:19.417Z,18.55
2018-04-14T12:13:46.985Z,18.66
2018-04-14T12:16:13.668Z,18.81
2018-04-14T12:18:40.466Z,18.86
2018-04-14T12:21:07.103Z,18.89
2018-04-14T12:23:33.797Z,18.93
2018-04-14T12:26:00.487Z,19.00
2018-04-14T12:28:27.240Z,19.15
2018-04-14T12:30:54.802Z,19.31
2018-04-14T12:33:21.427Z,19.42
2018-04-14T12:35:48.264Z,19.41
2018-04-14T12:38:14.957Z,18.91
2018-04-14T12:40:41.657Z,18.90
2018-04-14T12:43:08.369Z,18.76
2018-04-14T12:45:35.008Z,18.59
2018-04-14T12:48:01.756Z,18.54
2018-04-14T12:50:28.442Z,18.92
2018-04-14T12:52:55.930Z,18.71
2018-04-14T12:55:22.571Z,18.49
2018-04-14T12:57:49.353Z,18.94
2018-04-14T13:00:16.971Z,19.16
2018-04-14T13:02:44.526Z,18.98
2018-04-14T13:05:11.220Z,19.22
2018-04-14T13:07:37.875Z,19.08
2018-04-14T13:10:04.490Z,19.16
2018-04-14T13:12:31.497Z,19.06
2018-04-14T13:14:58.123Z,18.27
2018-04-14T13:17:24.822Z,18.00
2018-04-14T13:19:51.440Z,18.30
2018-04-14T13:22:18.851Z,18.96
2018-04-14T13:24:45.546Z,19.34
2018-04-14T13:27:13.159Z,19.10
2018-04-14T13:29:39.997Z,19.57
2018-04-14T13:32:06.626Z,19.96
2018-04-14T13:34:33.291Z,20.29
2018-04-14T13:36:59.996Z,20.57
2018-04-14T13:39:26.726Z,20.91
2018-04-14T13:41:53.425Z,20.99
2018-04-14T13:44:20.078Z,20.95
2018-04-14T13:46:47.555Z,21.11
2018-04-14T13:49:14.205Z,20.35
2018-04-14T13:51:40.828Z,20.63
2018-04-14T13:54:07.521Z,20.98
2018-04-14T13:56:34.232Z,20.51
2018-04-14T13:59:00.860Z,20.58
2018-04-14T14:01:27.537Z,20.88
2018-04-14T14:03:54.305Z,20.27
2018-04-14T14:06:21.694Z,20.06
2018-04-14T14:08:48.368Z,20.76
2018-04-14T14:11:15.204Z,21.54
2018-04-14T14:13:41.838Z,22.09
2018-04-14T14:16:08.493Z,22.58
2018-04-14T14:18:35.253Z,22.91
2018-04-14T14:21:01.956Z,23.36
2018-04-14T14:23:28.648Z,23.62
2018-04-14T14:25:56.509Z,23.69
2018-04-14T14:28:23.910Z,23.81
2018-04-14T14:30:50.575Z,23.70
2018-04-14T14:33:17.252Z,23.06
2018-04-14T14:35:44.611Z,23.39
2018-04-14T14:38:11.254Z,23.77
2018-04-14T14:40:37.966Z,24.01
2018-04-14T14:43:05.389Z,24.31
2018-04-14T14:45:32.026Z,24.04
2018-04-14T14:47:58.881Z,23.77
2018-04-14T14:50:27.503Z,23.39
2018-04-14T14:52:54.143Z,21.69
2018-04-14T14:55:21.569Z,21.75
2018-04-14T14:57:48.244Z,21.05
2018-04-14T15:00:15.710Z,20.85
2018-04-14T15:02:42.408Z,20.61
2018-04-14T15:05:09.199Z,20.61
2018-04-14T15:07:35.878Z,20.45
2018-04-14T15:10:02.547Z,20.28
2018-04-14T15:12:29.246Z,20.03
2018-04-14T15:14:55.906Z,20.01
2018-04-14T15:17:22.553Z,19.99
2018-04-14T15:19:49.290Z,20.15
2018-04-14T15:22:17.000Z,20.14
2018-04-14T15:24:43.670Z,19.91
2018-04-14T15:27:10.337Z,19.83
2018-04-14T15:29:37.012Z,20.03
2018-04-14T15:32:03.677Z,20.20
2018-04-14T15:34:30.493Z,19.61
2018-04-14T15:36:57.280Z,19.61
2018-04-14T15:39:23.980Z,19.96
2018-04-14T15:41:50.596Z,20.31
2018-04-14T15:44:18.062Z,20.31
2018-04-14T15:46:44.724Z,19.65
2018-04-14T15:49:11.465Z,19.46
2018-04-14T15:51:38.268Z,19.63
2018-04-14T15:54:05.857Z,19.83
2018-04-14T15:56:32.531Z,19.52
2018-04-14T15:58:59.201Z,19.49
2018-04-14T16:01:26.614Z,19.28
2018-04-14T16:03:53.583Z,19.20
2018-04-14T16:06:20.212Z,19.12
2018-04-14T16:08:46.907Z,19.12
2018-04-14T16:11:13.590Z,19.03
2018-04-14T16:13:40.273Z,18.97
2018-04-14T16:16:06.938Z,18.93
2018-04-14T16:18:33.672Z,19.05
2018-04-14T16:21:00.341Z,19.20
2018-04-14T16:23:27.043Z,19.36
2018-04-14T16:25:53.716Z,19.21
2018-04-14T16:28:20.489Z,19.11
2018-04-14T16:30:47.141Z,19.23
2018-04-14T16:33:14.567Z,19.13
2018-04-14T16:35:41.237Z,19.31
2018-04-14T16:38:08.741Z,19.16
2018-04-14T16:40:35.390Z,19.25
2018-04-14T16:43:02.019Z,19.26
2018-04-14T16:45:28.724Z,19.30
2018-04-14T16:47:56.131Z,19.28
2018-04-14T16:50:22.767Z,19.28
2018-04-14T16:52:49.417Z,19.18
2018-04-14T16:55:16.181Z,19.15
2018-04-14T16:57:42.881Z,19.06
2018-04-14T17:00:09.521Z,19.05
2018-04-14T17:02:36.204Z,19.17
2018-04-14T17:05:03.603Z,19.08
2018-04-14T17:07:30.344Z,19.02
2018-04-14T17:09:56.994Z,18.99
2018-04-14T17:12:23.645Z,18.84
2018-04-14T17:14:50.320Z,18.92
2018-04-14T17:17:16.952Z,18.75
2018-04-14T17:19:44.479Z,18.81
2018-04-14T17:22:11.120Z,18.78
2018-04-14T17:24:37.776Z,18.84
2018-04-14T17:27:04.421Z,18.76
2018-04-14T17:29:31.069Z,18.62
2018-04-14T17:31:58.537Z,18.56
2018-04-14T17:34:26.098Z,18.57
2018-04-14T17:36:53.515Z,18.50
2018-04-14T17:39:20.153Z,18.66
2018-04-14T17:41:46.879Z,18.68
2018-04-14T17:44:13.500Z,18.68
2018-04-14T17:46:40.149Z,18.71
2018-04-14T17:49:06.856Z,18.63
2018-04-14T17:51:34.280Z,18.55
2018-04-14T17:54:02.420Z,18.50
2018-04-14T17:56:29.197Z,18.49
2018-04-14T17:58:55.948Z,18.37
2018-04-14T18:01:22.645Z,18.36
2018-04-14T18:03:49.277Z,18.25
2018-04-14T18:06:15.916Z,18.18
2018-04-14T18:08:42.664Z,18.31
2018-04-14T18:11:09.399Z,18.27
2018-04-14T18:13:36.030Z,18.38
2018-04-14T18:16:02.719Z,18.29
2018-04-14T18:18:29.722Z,18.30
2018-04-14T18:20:56.395Z,18.22
2018-04-14T18:23:23.205Z,18.19
2018-04-14T18:25:50.018Z,18.09
2018-04-14T18:28:16.683Z,17.96
2018-04-14T18:30:43.408Z,17.98
2018-04-14T18:33:10.056Z,17.91
2018-04-14T18:35:36.701Z,17.79
2018-04-14T18:38:03.618Z,17.76
2018-04-14T18:40:30.321Z,17.78
2018-04-14T18:42:56.988Z,17.77
2018-04-14T18:45:24.504Z,17.77
2018-04-14T18:47:51.176Z,17.76
2018-04-14T18:50:18.594Z,17.76
2018-04-14T18:52:45.298Z,17.67
2018-04-14T18:55:11.941Z,17.55
2018-04-14T18:57:38.765Z,17.50
2018-04-14T19:00:06.278Z,17.49
2018-04-14T19:02:32.928Z,17.52
2018-04-14T19:04:59.654Z,17.49
2018-04-14T19:07:26.368Z,17.36
2018-04-14T19:09:53.028Z,17.46
2018-04-14T19:12:19.701Z,17.47
2018-04-14T19:14:47.209Z,17.42
2018-04-14T19:17:13.897Z,17.38
2018-04-14T19:19:40.592Z,17.38
2018-04-14T19:22:07.272Z,17.34
2018-04-14T19:24:34.002Z,17.30
2018-04-14T19:27:00.682Z,17.25
2018-04-14T19:29:28.176Z,17.21
2018-04-14T19:31:54.852Z,17.24
2018-04-14T19:34:21.601Z,17.21
2018-04-14T19:36:48.302Z,17.25
2018-04-14T19:39:15.119Z,17.25
2018-04-14T19:41:41.786Z,17.19
2018-04-14T19:44:08.621Z,17.12
2018-04-14T19:46:35.321Z,17.20
2018-04-14T19:49:02.721Z,17.21
2018-04-14T19:51:29.461Z,17.10
2018-04-14T19:53:56.192Z,17.11
2018-04-14T19:56:22.878Z,17.10
2018-04-14T19:58:49.532Z,16.99
2018-04-14T20:01:17.006Z,17.06
2018-04-14T20:03:43.694Z,16.98
2018-04-14T20:06:10.358Z,17.00
2018-04-14T20:08:37.746Z,17.05
2018-04-14T20:11:04.458Z,16.91
2018-04-14T20:13:31.912Z,16.91
2018-04-14T20:15:59.747Z,16.78
2018-04-14T20:18:26.471Z,16.71
2018-04-14T20:20:53.122Z,16.81
2018-04-14T20:23:19.861Z,16.67
2018-04-14T20:25:46.539Z,16.65
2018-04-14T20:28:13.971Z,16.67
2018-04-14T20:30:40.635Z,16.58
2018-04-14T20:33:07.301Z,16.53
2018-04-14T20:35:34.169Z,16.52
2018-04-14T20:38:00.948Z,16.47
2018-04-14T20:40:27.625Z,16.41
2018-04-14T20:42:54.285Z,16.53
2018-04-14T20:45:20.946Z,16.40
2018-04-14T20:47:47.826Z,16.41
2018-04-14T20:50:15.498Z,16.39
2018-04-14T20:52:42.951Z,16.43
2018-04-14T20:55:09.615Z,16.41
2018-04-14T20:57:36.993Z,16.39
2018-04-14T21:00:03.786Z,16.43
2018-04-14T21:02:30.535Z,16.50
2018-04-14T21:04:57.200Z,16.54
2018-04-14T21:07:23.977Z,16.48
2018-04-14T21:09:50.620Z,16.47
2018-04-14T21:12:18.061Z,16.40
2018-04-14T21:14:44.719Z,16.27
2018-04-14T21:17:11.328Z,16.24
2018-04-14T21:19:38.009Z,16.25
2018-04-14T21:22:05.488Z,16.15
2018-04-14T21:24:32.216Z,16.20
2018-04-14T21:26:59.694Z,16.16
2018-04-14T21:29:26.385Z,16.14
2018-04-14T21:31:53.054Z,16.08
2018-04-14T21:34:19.693Z,16.07
2018-04-14T21:36:46.351Z,16.02
2018-04-14T21:39:13.027Z,16.01
2018-04-14T21:41:39.676Z,16.06
2018-04-14T21:44:06.625Z,16.01
2018-04-14T21:46:33.430Z,15.94
2018-04-14T21:49:00.159Z,15.87
2018-04-14T21:51:26.878Z,15.87
2018-04-14T21:53:54.374Z,15.81
2018-04-14T21:56:21.329Z,15.89
2018-04-14T21:58:48.816Z,15.87
2018-04-14T22:01:15.514Z,15.80
2018-04-14T22:03:42.149Z,15.89
2018-04-14T22:06:08.779Z,15.83
2018-04-14T22:08:35.463Z,15.81
2018-04-14T22:11:04.381Z,15.74
2018-04-14T22:13:31.224Z,15.69
2018-04-14T22:15:58.058Z,15.65
2018-04-14T22:18:24.803Z,15.63
2018-04-14T22:20:52.546Z,15.68
2018-04-14T22:23:21.804Z,15.69
2018-04-14T22:25:48.920Z,15.63
2018-04-14T22:28:16.255Z,15.66
2018-04-14T22:30:43.705Z,15.62
2018-04-14T22:33:11.315Z,15.64
2018-04-14T22:35:38.731Z,15.73
2018-04-14T22:38:05.724Z,15.64
2018-04-14T22:40:32.447Z,15.63
2018-04-14T22:43:00.070Z,15.65
2018-04-14T22:45:27.856Z,15.67
2018-04-14T22:47:54.661Z,15.62
2018-04-14T22:50:22.055Z,15.73
2018-04-14T22:52:48.780Z,15.70
2018-04-14T22:55:16.577Z,15.66
2018-04-14T22:57:43.303Z,15.72
2018-04-14T23:00:09.970Z,15.70
2018-04-14T23:02:36.685Z,15.68
2018-04-14T23:05:03.326Z,15.80
2018-04-14T23:07:29.997Z,15.82
2018-04-14T23:09:56.715Z,15.82
2018-04-14T23:12:23.373Z,15.74
2018-04-14T23:14:50.158Z,15.86
2018-04-14T23:17:17.630Z,15.84
2018-04-14T23:19:44.503Z,15.84
2018-04-14T23:22:14.412Z,15.83
2018-04-14T23:24:41.094Z,15.82
2018-04-14T23:27:07.782Z,15.79
2018-04-14T23:29:35.380Z,15.80
2018-04-14T23:32:02.069Z,15.78
2018-04-14T23:34:28.804Z,15.82
2018-04-14T23:36:56.056Z,15.83
2018-04-14T23:39:22.693Z,15.82
2018-04-14T23:41:49.337Z,15.79
2018-04-14T23:44:15.948Z,15.79
2018-04-14T23:46:43.052Z,15.77
2018-04-14T23:49:09.781Z,15.67
2018-04-14T23:51:37.381Z,15.61
2018-04-14T23:54:04.036Z,15.54
2018-04-14T23:56:30.786Z,15.51
2018-04-14T23:58:57.559Z,15.51
